Time;durP1;ratioP1;P1;durP2;ratioP2;P2;SDS_P1;SDS_P2;PMS_P1;PMS_P2;Temp;Humidity;BMP_temperature;BMP_pressure;BME280_temperature;BME280_humidity;BME280_pressure;Samples;Min_cycle;Max_cycle;Signal;HPM_P1;HPM_P2
2021/01/13 00:01:38;;;;;;;70.70;11.73;;;0.80;99.90;;;;;;5052905;28;20235;-71
2021/01/13 00:04:04;;;;;;;68.35;11.98;;;0.80;99.90;;;;;;5052079;28;20688;-70
2021/01/13 00:06:31;;;;;;;68.75;12.20;;;0.80;99.90;;;;;;5052630;28;20252;-71
2021/01/13 00:08:58;;;;;;;69.60;11.80;;;0.90;99.90;;;;;;5052415;28;20264;-70
2021/01/13 00:11:24;;;;;;;67.95;10.35;;;0.90;99.90;;;;;;5052668;28;20225;-70
2021/01/13 00:13:51;;;;;;;67.55;11.18;;;1.00;99.90;;;;;;5052705;28;20676;-70
2021/01/13 00:16:17;;;;;;;68.18;10.75;;;1.00;99.90;;;;;;5052673;28;20646;-70
2021/01/13 00:18:43;;;;;;;65.53;10.65;;;1.00;99.90;;;;;;5052200;28;20288;-71
2021/01/13 00:21:13;;;;;;;67.50;10.50;;;1.10;99.90;;;;;;5052305;28;20229;-71
2021/01/13 00:23:43;;;;;;;72.47;11.40;;;1.10;99.90;;;;;;5052951;28;20292;-70
2021/01/13 00:26:10;;;;;;;68.70;11.77;;;1.10;99.90;;;;;;5052292;28;20202;-70
2021/01/13 00:28:37;;;;;;;68.68;11.25;;;1.10;99.90;;;;;;5052227;28;20247;-70
2021/01/13 00:31:03;;;;;;;66.05;10.85;;;1.10;99.90;;;;;;5052416;28;20636;-70
2021/01/13 00:33:30;;;;;;;67.93;9.35;;;1.10;99.90;;;;;;5052674;28;20209;-70
2021/01/13 00:35:56;;;;;;;70.53;12.18;;;1.10;99.90;;;;;;5052479;28;20230;-70
2021/01/13 00:38:22;;;;;;;67.90;10.90;;;1.10;99.90;;;;;;5051890;28;20201;-70
2021/01/13 00:40:49;;;;;;;67.30;11.70;;;1.10;99.90;;;;;;5052563;28;20202;-70
2021/01/13 00:43:16;;;;;;;75.70;11.63;;;1.10;99.90;;;;;;5052151;28;20476;-70
2021/01/13 00:45:42;;;;;;;67.20;10.55;;;1.20;99.90;;;;;;5052116;28;20288;-70
2021/01/13 00:48:09;;;;;;;69.68;11.82;;;1.20;99.90;;;;;;5051899;28;20240;-70
2021/01/13 00:50:36;;;;;;;67.10;11.00;;;1.20;99.90;;;;;;5052050;28;20234;-70
2021/01/13 00:53:02;;;;;;;68.45;11.40;;;1.20;99.90;;;;;;5052033;28;20550;-70
2021/01/13 00:55:29;;;;;;;71.28;11.43;;;1.20;99.90;;;;;;5052304;28;20738;-70
2021/01/13 00:57:55;;;;;;;66.82;11.02;;;1.30;99.90;;;;;;5051541;28;20229;-70
2021/01/13 01:00:23;;;;;;;70.82;10.52;;;1.30;99.90;;;;;;5051778;28;20681;-70
2021/01/13 01:02:49;;;;;;;69.82;11.45;;;1.30;99.90;;;;;;5051876;28;20599;-70
2021/01/13 01:05:15;;;;;;;74.55;11.18;;;1.30;99.90;;;;;;5051878;28;20221;-70
2021/01/13 01:07:42;;;;;;;65.43;11.25;;;1.30;99.90;;;;;;5051698;28;20629;-70
2021/01/13 01:10:11;;;;;;;65.22;10.48;;;1.40;99.90;;;;;;5051425;28;20743;-70
2021/01/13 01:12:37;;;;;;;65.90;10.30;;;1.40;99.90;;;;;;5051507;28;20229;-70
2021/01/13 01:15:05;;;;;;;65.65;10.32;;;1.40;99.90;;;;;;5051102;28;20303;-70
2021/01/13 01:17:32;;;;;;;67.40;10.88;;;1.40;99.90;;;;;;5051381;28;20292;-70
2021/01/13 01:19:59;;;;;;;66.65;10.32;;;1.40;99.90;;;;;;5051192;28;20288;-71
2021/01/13 01:22:25;;;;;;;66.70;10.00;;;1.40;99.90;;;;;;5051686;28;20257;-71
2021/01/13 01:24:51;;;;;;;71.75;11.77;;;1.40;99.90;;;;;;5051418;28;20291;-70
2021/01/13 01:27:18;;;;;;;73.72;11.48;;;1.40;99.90;;;;;;5051338;28;20245;-70
2021/01/13 01:29:44;;;;;;;68.10;10.38;;;1.50;99.90;;;;;;5051148;28;20279;-70
2021/01/13 01:32:10;;;;;;;64.70;10.32;;;1.50;99.90;;;;;;5051376;28;20302;-70
2021/01/13 01:34:37;;;;;;;66.50;9.60;;;1.40;99.90;;;;;;5051538;28;20304;-71
2021/01/13 01:37:04;;;;;;;63.50;9.63;;;1.40;99.90;;;;;;5051478;28;20300;-71
2021/01/13 01:39:30;;;;;;;63.70;9.48;;;1.40;99.90;;;;;;5051161;28;20201;-71
2021/01/13 01:41:56;;;;;;;66.93;9.02;;;1.50;99.90;;;;;;5051051;28;20233;-71
2021/01/13 01:44:23;;;;;;;65.97;9.90;;;1.40;99.90;;;;;;5051441;28;20696;-71
2021/01/13 01:46:55;;;;;;;64.03;9.85;;;1.40;99.90;;;;;;5051294;28;20302;-71
2021/01/13 01:49:23;;;;;;;66.63;10.40;;;1.40;99.90;;;;;;5051045;28;20596;-70
2021/01/13 01:52:02;;;;;;;63.83;9.40;;;1.50;99.90;;;;;;5051179;28;20535;-70
2021/01/13 01:54:35;;;;;;;67.93;11.02;;;1.50;99.90;;;;;;5051161;28;20673;-70
2021/01/13 01:57:04;;;;;;;66.57;10.10;;;1.50;99.90;;;;;;5051340;28;20587;-70
2021/01/13 01:59:42;;;;;;;65.78;9.75;;;1.50;99.90;;;;;;5051228;28;20206;-70
2021/01/13 02:02:10;;;;;;;64.70;9.45;;;1.50;99.90;;;;;;5051115;28;20229;-70
2021/01/13 02:04:42;;;;;;;64.90;9.38;;;1.50;99.90;;;;;;5051095;28;20347;-70
2021/01/13 02:07:31;;;;;;;71.38;9.18;;;1.50;99.90;;;;;;5050917;28;20205;-71
2021/01/13 02:09:59;;;;;;;65.32;10.15;;;1.50;99.90;;;;;;5051156;28;20715;-71
2021/01/13 02:12:27;;;;;;;67.47;9.30;;;1.50;99.90;;;;;;5051015;28;20593;-71
2021/01/13 02:14:54;;;;;;;65.05;9.02;;;1.50;99.90;;;;;;5051175;28;20270;-71
2021/01/13 02:17:28;;;;;;;63.75;8.25;;;1.50;99.90;;;;;;5050693;28;20202;-71
2021/01/13 02:20:15;;;;;;;63.38;8.35;;;1.50;99.90;;;;;;5051258;28;20202;-71
2021/01/13 02:23:04;;;;;;;68.55;9.75;;;1.50;99.90;;;;;;5051184;28;20233;-70
2021/01/13 02:26:21;;;;;;;65.10;8.95;;;1.50;99.90;;;;;;5051084;28;20209;-71
2021/01/13 02:29:00;;;;;;;65.15;8.95;;;1.50;99.90;;;;;;5054281;28;20201;-71
2021/01/13 02:32:05;;;;;;;67.97;9.20;;;1.40;99.90;;;;;;5054670;28;20240;-71
2021/01/13 02:34:40;;;;;;;66.82;9.70;;;1.50;99.90;;;;;;5048308;28;20798;-71
2021/01/13 02:37:35;;;;;;;65.82;9.75;;;1.40;99.90;;;;;;5054737;28;20287;-71
2021/01/13 02:40:06;;;;;;;66.43;8.68;;;1.40;99.90;;;;;;5054439;28;20284;-71
2021/01/13 02:42:36;;;;;;;63.10;7.90;;;1.50;99.90;;;;;;5054419;28;20259;-70
2021/01/13 02:45:10;;;;;;;66.03;8.70;;;1.50;99.90;;;;;;5054585;28;20201;-70
2021/01/13 02:48:10;;;;;;;65.15;9.88;;;1.50;99.90;;;;;;5054170;28;20213;-71
2021/01/13 02:50:41;;;;;;;65.85;10.05;;;1.50;99.90;;;;;;5034146;28;20230;-71
2021/01/13 02:53:45;;;;;;;67.28;8.82;;;1.40;99.90;;;;;;5034439;28;20748;-71
2021/01/13 02:56:41;;;;;;;67.78;9.85;;;1.40;99.90;;;;;;5034196;28;20216;-70
2021/01/13 02:59:11;;;;;;;67.85;9.23;;;1.40;99.90;;;;;;5034185;28;20233;-71
2021/01/13 03:01:40;;;;;;;65.30;9.75;;;1.40;99.90;;;;;;5034105;28;20305;-71
2021/01/13 03:04:08;;;;;;;66.80;9.52;;;1.40;99.90;;;;;;5034262;28;20209;-71
2021/01/13 03:06:37;;;;;;;63.72;9.25;;;1.40;99.90;;;;;;5033896;28;20210;-71
2021/01/13 03:09:06;;;;;;;69.53;10.27;;;1.40;99.90;;;;;;5033971;28;20230;-71
2021/01/13 03:11:33;;;;;;;66.30;9.57;;;1.30;99.90;;;;;;5034059;28;20226;-71
2021/01/13 03:14:12;;;;;;;65.30;9.52;;;1.40;99.90;;;;;;5033981;28;20211;-71
2021/01/13 03:16:44;;;;;;;65.85;10.35;;;1.40;99.90;;;;;;5033927;28;20217;-71
2021/01/13 03:19:17;;;;;;;70.40;10.63;;;1.30;99.90;;;;;;5033470;28;20198;-70
2021/01/13 03:21:52;;;;;;;68.05;11.35;;;1.30;99.90;;;;;;5033887;28;20234;-70
2021/01/13 03:24:39;;;;;;;73.40;11.00;;;1.30;99.90;;;;;;5034007;28;20206;-71
2021/01/13 03:27:07;;;;;;;68.53;10.45;;;1.30;99.90;;;;;;5033699;28;20233;-71
2021/01/13 03:29:37;;;;;;;68.90;11.88;;;1.40;99.90;;;;;;5033128;28;20237;-71
2021/01/13 03:32:09;;;;;;;68.55;10.85;;;1.30;99.90;;;;;;5076029;22;20591;-70
2021/01/13 03:34:59;;;;;;;70.07;10.40;;;1.30;99.90;;;;;;5054035;28;20209;-70
2021/01/13 03:37:31;;;;;;;68.07;10.70;;;1.30;99.90;;;;;;5036926;28;20292;-70
2021/01/13 03:39:58;;;;;;;68.40;10.25;;;1.30;99.90;;;;;;5052510;28;20202;-70
2021/01/13 03:42:26;;;;;;;66.25;10.10;;;1.30;99.90;;;;;;5053977;28;20708;-69
2021/01/13 03:44:53;;;;;;;65.88;10.43;;;1.20;99.90;;;;;;5053791;28;20209;-69
2021/01/13 03:48:00;;;;;;;76.32;12.40;;;1.30;99.90;;;;;;5053678;28;20205;-70
2021/01/13 03:50:34;;;;;;;65.57;9.32;;;1.20;99.90;;;;;;5053394;28;20592;-70
2021/01/13 03:53:03;;;;;;;64.80;9.95;;;1.20;99.90;;;;;;5053900;28;20613;-69
2021/01/13 03:55:31;;;;;;;69.30;10.85;;;1.20;99.90;;;;;;5053542;28;20206;-70
2021/01/13 03:58:22;;;;;;;69.47;10.68;;;1.20;99.90;;;;;;5053311;28;20209;-69
2021/01/13 04:01:19;;;;;;;65.60;9.90;;;1.20;99.90;;;;;;5053096;28;20248;-70
2021/01/13 04:03:55;;;;;;;65.03;10.20;;;1.20;99.90;;;;;;5051453;28;20263;-69
2021/01/13 04:06:22;;;;;;;73.38;11.10;;;1.10;99.90;;;;;;5054864;28;20213;-70
2021/01/13 04:08:49;;;;;;;68.68;10.30;;;1.10;99.90;;;;;;5053571;28;20202;-70
2021/01/13 04:11:17;;;;;;;72.28;12.63;;;1.10;99.90;;;;;;5053091;28;20222;-70
2021/01/13 04:13:46;;;;;;;68.35;10.85;;;1.10;99.90;;;;;;5053718;28;20236;-70
2021/01/13 04:16:14;;;;;;;67.45;10.32;;;1.10;99.90;;;;;;5053006;28;20217;-70
2021/01/13 04:18:41;;;;;;;70.00;10.25;;;1.10;99.90;;;;;;5052870;28;20205;-70
2021/01/13 04:21:12;;;;;;;67.07;9.75;;;1.10;99.90;;;;;;5052812;28;20208;-70
2021/01/13 04:23:39;;;;;;;65.53;9.20;;;1.10;99.90;;;;;;5053463;28;20206;-70
2021/01/13 04:26:06;;;;;;;67.72;9.65;;;1.10;99.90;;;;;;5053341;28;20241;-70
2021/01/13 04:28:33;;;;;;;63.55;9.88;;;1.10;99.90;;;;;;5052934;28;20206;-70
2021/01/13 04:31:00;;;;;;;69.00;10.95;;;1.10;99.90;;;;;;5052823;28;20264;-69
2021/01/13 04:33:27;;;;;;;68.00;10.52;;;1.10;99.90;;;;;;5052831;28;20213;-70
2021/01/13 04:35:55;;;;;;;72.35;10.43;;;1.10;99.90;;;;;;5053127;28;20569;-70
2021/01/13 04:38:24;;;;;;;70.72;12.07;;;1.10;99.90;;;;;;5052624;28;20201;-70
2021/01/13 04:41:04;;;;;;;72.47;11.75;;;1.00;99.90;;;;;;5053345;28;20564;-70
2021/01/13 04:43:52;;;;;;;68.22;10.32;;;1.00;99.90;;;;;;5053165;28;20668;-70
2021/01/13 04:46:29;;;;;;;67.72;10.15;;;1.00;99.90;;;;;;5053346;28;20213;-70
2021/01/13 04:49:08;;;;;;;65.10;9.25;;;1.00;99.90;;;;;;5052424;28;20255;-70
2021/01/13 04:51:37;;;;;;;65.43;9.60;;;0.90;99.90;;;;;;5052927;28;20235;-70
2021/01/13 04:54:09;;;;;;;63.67;9.20;;;0.90;99.90;;;;;;5052886;28;20202;-70
2021/01/13 04:56:48;;;;;;;65.47;10.05;;;0.90;99.90;;;;;;5052694;28;20212;-70
2021/01/13 04:59:55;;;;;;;66.68;10.68;;;0.90;99.90;;;;;;5052042;28;20579;-70
2021/01/13 05:02:51;;;;;;;66.68;9.80;;;0.90;99.90;;;;;;5052270;28;20354;-70
2021/01/13 05:05:22;;;;;;;67.97;9.13;;;0.90;99.90;;;;;;5051925;28;20221;-69
2021/01/13 05:08:19;;;;;;;66.80;9.48;;;0.90;99.90;;;;;;5052063;28;20583;-70
2021/01/13 05:10:50;;;;;;;67.90;10.82;;;0.90;99.90;;;;;;5051947;28;20573;-70
2021/01/13 05:13:17;;;;;;;65.60;10.23;;;0.90;99.90;;;;;;5051957;28;20214;-70
2021/01/13 05:15:54;;;;;;;68.03;10.10;;;0.90;99.90;;;;;;5051743;28;20673;-70
2021/01/13 05:18:51;;;;;;;71.75;10.48;;;0.80;99.90;;;;;;5052148;28;20553;-71
2021/01/13 05:21:19;;;;;;;67.03;10.10;;;0.80;99.90;;;;;;5051838;28;20229;-69
2021/01/13 05:23:48;;;;;;;67.20;11.52;;;0.80;99.90;;;;;;5051878;28;20210;-70
2021/01/13 05:26:18;;;;;;;67.88;10.90;;;0.70;99.90;;;;;;5051820;28;20217;-70
2021/01/13 05:29:08;;;;;;;66.50;10.43;;;0.70;99.90;;;;;;5051683;28;20209;-70
2021/01/13 05:31:37;;;;;;;68.85;10.77;;;0.70;99.90;;;;;;5051494;28;20230;-70
2021/01/13 05:34:05;;;;;;;65.40;9.57;;;0.70;99.90;;;;;;5051754;28;20256;-70
2021/01/13 05:36:32;;;;;;;70.07;9.35;;;0.70;99.90;;;;;;5051421;28;20301;-69
2021/01/13 05:39:05;;;;;;;67.30;8.18;;;0.60;99.90;;;;;;5051022;28;20221;-70
2021/01/13 05:41:35;;;;;;;69.03;9.55;;;0.60;99.90;;;;;;5051410;28;20225;-70
2021/01/13 05:44:03;;;;;;;63.58;9.27;;;0.60;99.90;;;;;;5051280;28;20672;-70
2021/01/13 05:46:43;;;;;;;67.57;9.68;;;0.50;99.90;;;;;;5051400;28;20292;-70
2021/01/13 05:49:11;;;;;;;64.10;8.75;;;0.40;99.90;;;;;;5050780;28;20201;-70
2021/01/13 05:51:38;;;;;;;66.55;8.95;;;0.40;99.90;;;;;;5051513;28;20613;-70
2021/01/13 05:54:05;;;;;;;70.60;9.15;;;0.30;99.90;;;;;;5051379;28;20208;-70
2021/01/13 05:56:36;;;;;;;67.70;11.30;;;0.30;99.90;;;;;;5051277;28;20700;-70
2021/01/13 05:59:05;;;;;;;67.75;10.60;;;0.20;99.90;;;;;;5052023;28;20205;-71
2021/01/13 06:01:41;;;;;;;73.60;10.60;;;0.20;99.90;;;;;;5058077;28;20232;-70
2021/01/13 06:04:09;;;;;;;64.72;8.40;;;0.10;99.90;;;;;;5055977;28;20244;-70
2021/01/13 06:06:41;;;;;;;66.43;10.30;;;0.00;99.90;;;;;;5055594;28;20662;-70
2021/01/13 06:09:11;;;;;;;66.68;9.90;;;0.00;99.90;;;;;;5055143;28;20292;-70
2021/01/13 06:11:42;;;;;;;67.85;8.93;;;0.00;99.90;;;;;;5055439;28;20230;-70
2021/01/13 06:14:10;;;;;;;69.70;8.60;;;0.00;99.90;;;;;;5055433;28;20766;-70
2021/01/13 06:16:36;;;;;;;68.25;9.38;;;-0.10;99.90;;;;;;5055746;28;20267;-70
2021/01/13 06:19:06;;;;;;;68.63;8.43;;;-0.10;99.90;;;;;;5055552;28;20209;-70
2021/01/13 06:21:34;;;;;;;66.22;9.70;;;-0.10;99.90;;;;;;5055842;28;20248;-70
2021/01/13 06:24:12;;;;;;;66.38;9.32;;;-0.10;99.90;;;;;;5055814;28;20202;-70
2021/01/13 06:26:51;;;;;;;64.60;9.13;;;-0.10;99.90;;;;;;5055326;28;20263;-70
2021/01/13 06:29:46;;;;;;;64.50;8.90;;;-0.20;99.90;;;;;;5055656;28;20212;-70
2021/01/13 06:32:19;;;;;;;65.43;9.18;;;-0.20;99.90;;;;;;5055381;28;20233;-69
2021/01/13 06:34:57;;;;;;;64.40;8.80;;;-0.30;99.90;;;;;;5055919;28;20205;-70
2021/01/13 06:37:41;;;;;;;66.72;9.48;;;-0.30;99.90;;;;;;5055518;28;20219;-70
2021/01/13 06:40:13;;;;;;;62.25;7.72;;;-0.30;99.90;;;;;;5054646;28;20591;-70
2021/01/13 06:42:41;;;;;;;68.70;8.90;;;-0.40;99.90;;;;;;5054309;28;20232;-71
2021/01/13 06:45:08;;;;;;;64.80;8.55;;;-0.40;99.90;;;;;;5054517;28;20210;-70
2021/01/13 06:47:35;;;;;;;62.65;8.30;;;-0.40;99.90;;;;;;5053838;28;20669;-70
2021/01/13 06:50:02;;;;;;;66.00;8.85;;;-0.50;99.90;;;;;;5054529;28;20330;-71
2021/01/13 06:52:30;;;;;;;61.42;8.02;;;-0.50;99.90;;;;;;5054060;28;20240;-70
2021/01/13 06:55:00;;;;;;;66.70;8.60;;;-0.50;99.90;;;;;;5054371;28;20249;-70
2021/01/13 06:57:28;;;;;;;64.95;9.35;;;-0.60;99.90;;;;;;5054223;28;20286;-70
2021/01/13 06:59:55;;;;;;;63.63;7.90;;;-0.60;99.90;;;;;;5053832;28;20201;-70
2021/01/13 07:02:35;;;;;;;65.03;8.88;;;-0.60;99.90;;;;;;5054263;28;20229;-70
2021/01/13 07:05:08;;;;;;;64.22;9.25;;;-0.70;99.90;;;;;;5054257;28;20256;-71
2021/01/13 07:07:41;;;;;;;64.90;8.55;;;-0.70;99.90;;;;;;5054080;28;20248;-70
2021/01/13 07:10:11;;;;;;;64.40;9.52;;;-0.70;99.90;;;;;;5053799;28;20222;-71
2021/01/13 07:12:39;;;;;;;63.78;9.20;;;-0.80;99.90;;;;;;5053747;28;20231;-71
2021/01/13 07:15:08;;;;;;;66.57;9.32;;;-0.80;99.90;;;;;;5054097;28;20233;-71
2021/01/13 07:17:36;;;;;;;64.57;9.63;;;-0.80;99.90;;;;;;5053851;28;20247;-70
2021/01/13 07:20:05;;;;;;;64.63;8.70;;;-0.90;99.90;;;;;;5053909;28;20201;-70
2021/01/13 07:22:31;;;;;;;63.00;9.38;;;-0.90;99.90;;;;;;5053820;28;20233;-71
2021/01/13 07:24:58;;;;;;;65.63;8.70;;;-0.90;99.90;;;;;;5053361;28;20205;-71
2021/01/13 07:27:24;;;;;;;63.33;8.80;;;-0.90;99.90;;;;;;5053638;28;20784;-70
2021/01/13 07:29:51;;;;;;;65.95;9.10;;;-0.90;99.90;;;;;;5053303;28;20217;-70
2021/01/13 07:32:21;;;;;;;65.68;9.23;;;-0.90;99.90;;;;;;5053579;28;20664;-71
2021/01/13 07:34:54;;;;;;;66.05;10.27;;;-0.90;99.90;;;;;;5053643;28;20273;-70
2021/01/13 07:37:23;;;;;;;64.65;9.70;;;-0.90;99.90;;;;;;5053203;28;20211;-69
2021/01/13 07:40:31;;;;;;;66.82;9.65;;;-0.90;99.90;;;;;;5053155;28;20244;-71
2021/01/13 07:43:07;;;;;;;71.25;8.73;;;-0.80;99.90;;;;;;5053317;28;20655;-70
2021/01/13 07:45:43;;;;;;;68.30;8.85;;;-0.80;99.90;;;;;;5053457;28;20553;-69
2021/01/13 07:49:03;;;;;;;62.35;8.60;;;-0.80;99.90;;;;;;5052888;28;20231;-69
2021/01/13 07:51:35;;;;;;;65.18;8.75;;;-0.80;99.90;;;;;;4991319;28;20278;-70
2021/01/13 07:54:07;;;;;;;64.30;9.98;;;-0.80;99.90;;;;;;5040968;28;20237;-70
2021/01/13 07:56:36;;;;;;;69.13;10.98;;;-0.80;99.90;;;;;;5053651;28;20319;-70
2021/01/13 07:59:49;;;;;;;70.18;10.25;;;-0.70;99.90;;;;;;5057065;28;20664;-70
2021/01/13 08:02:51;;;;;;;67.68;10.05;;;-0.70;99.90;;;;;;5062185;28;20229;-70
2021/01/13 08:05:57;;;;;;;64.97;10.02;;;-0.70;99.90;;;;;;5034480;28;20346;-70
2021/01/13 08:08:26;;;;;;;65.95;9.65;;;-0.60;99.90;;;;;;5054541;28;20629;-70
2021/01/13 08:10:53;;;;;;;70.68;11.48;;;-0.50;99.90;;;;;;5053230;28;20606;-71
2021/01/13 08:13:51;;;;;;;67.10;11.55;;;-0.50;99.90;;;;;;5053203;28;20289;-69
2021/01/13 08:16:48;;;;;;;69.80;10.38;;;-0.40;99.90;;;;;;5053541;28;20742;-69
2021/01/13 08:19:59;;;;;;;68.35;11.63;;;-0.30;99.90;;;;;;5052706;28;20210;-70
2021/01/13 08:22:28;;;;;;;70.03;12.25;;;-0.10;99.90;;;;;;5052717;28;20291;-70
2021/01/13 08:25:02;;;;;;;70.30;13.27;;;0.00;99.90;;;;;;5052165;28;20210;-71
2021/01/13 08:27:29;;;;;;;74.25;12.90;;;0.10;99.90;;;;;;5052595;28;20210;-71
2021/01/13 08:29:57;;;;;;;76.40;12.95;;;0.20;99.90;;;;;;5052098;28;20233;-71
2021/01/13 08:32:31;;;;;;;69.55;11.95;;;0.20;99.90;;;;;;5052467;28;20728;-71
2021/01/13 08:35:05;;;;;;;78.30;13.32;;;0.20;99.90;;;;;;5052766;28;20700;-71
2021/01/13 08:37:33;;;;;;;74.55;11.95;;;0.30;99.90;;;;;;5052661;28;20210;-71
2021/01/13 08:40:27;;;;;;;73.63;12.93;;;0.30;99.90;;;;;;5052499;28;20205;-71
2021/01/13 08:43:09;;;;;;;67.90;13.00;;;0.40;99.90;;;;;;5052573;28;20532;-71
2021/01/13 08:45:37;;;;;;;72.93;12.60;;;0.40;99.90;;;;;;5052638;28;20201;-70
2021/01/13 08:48:09;;;;;;;71.10;12.57;;;0.50;99.90;;;;;;5052232;28;20565;-70
2021/01/13 08:50:36;;;;;;;75.20;13.93;;;0.60;99.90;;;;;;5052151;28;20267;-70
2021/01/13 08:53:04;;;;;;;70.70;12.35;;;0.60;99.90;;;;;;5052450;28;20222;-70
2021/01/13 08:55:33;;;;;;;68.47;12.05;;;0.70;99.90;;;;;;5052445;28;20205;-69
2021/01/13 08:58:10;;;;;;;70.32;14.65;;;0.70;99.90;;;;;;5051764;28;20210;-70
2021/01/13 09:00:37;;;;;;;77.80;16.73;;;0.80;99.90;;;;;;5052375;28;20201;-70
2021/01/13 09:03:13;;;;;;;83.68;17.50;;;0.90;99.90;;;;;;5051681;28;20222;-69
2021/01/13 09:05:41;;;;;;;74.85;16.52;;;0.90;99.90;;;;;;5052055;28;20209;-70
2021/01/13 09:08:10;;;;;;;71.93;14.07;;;1.00;99.90;;;;;;5052058;28;20202;-70
2021/01/13 09:11:03;;;;;;;73.15;14.32;;;1.00;99.90;;;;;;5052424;28;20248;-70
2021/01/13 09:13:40;;;;;;;71.72;13.25;;;1.00;99.90;;;;;;5051631;28;20194;-70
2021/01/13 09:16:34;;;;;;;80.20;15.30;;;1.20;99.90;;;;;;5051988;28;20213;-70
2021/01/13 09:19:10;;;;;;;77.15;14.52;;;1.40;99.90;;;;;;5016576;28;20562;-70
2021/01/13 09:21:38;;;;;;;73.53;15.23;;;1.70;99.90;;;;;;5052149;28;20221;-71
2021/01/13 09:24:06;;;;;;;81.95;14.40;;;1.80;99.90;;;;;;5051622;28;20275;-71
2021/01/13 09:26:35;;;;;;;75.20;14.45;;;1.80;99.90;;;;;;5051962;28;20292;-71
2021/01/13 09:29:05;;;;;;;77.75;15.32;;;1.80;99.90;;;;;;5051052;28;20201;-71
2021/01/13 09:34:00;;;;;;;75.82;13.25;;;1.90;99.90;;;;;;5009675;28;20215;-71
2021/01/13 09:36:26;;;;;;;72.07;14.55;;;1.90;99.90;;;;;;5010823;28;20211;-71
2021/01/13 09:39:14;;;;;;;73.75;13.25;;;2.00;99.90;;;;;;5011587;28;20644;-71
2021/01/13 09:41:42;;;;;;;78.28;12.82;;;2.10;99.90;;;;;;5011777;28;20233;-71
2021/01/13 09:44:13;;;;;;;76.00;12.75;;;2.10;99.90;;;;;;5011870;28;20281;-70
2021/01/13 09:46:40;;;;;;;80.30;12.38;;;2.20;99.90;;;;;;5011621;28;20583;-71
2021/01/13 09:49:08;;;;;;;73.25;11.90;;;2.40;99.90;;;;;;5011257;28;20269;-71
2021/01/13 09:51:36;;;;;;;90.65;12.65;;;2.70;99.90;;;;;;5011462;28;20231;-70
2021/01/13 09:54:04;;;;;;;71.20;11.88;;;2.90;99.90;;;;;;5011613;28;20689;-70
2021/01/13 09:56:32;;;;;;;72.97;10.88;;;3.10;99.90;;;;;;5011522;28;20580;-70
2021/01/13 09:59:01;;;;;;;76.57;10.65;;;3.00;99.90;;;;;;5011307;28;20210;-70
2021/01/13 10:01:30;;;;;;;63.80;9.00;;;3.00;99.90;;;;;;5011416;28;20241;-70
2021/01/13 10:03:57;;;;;;;65.03;8.45;;;2.90;99.90;;;;;;5011653;28;20217;-70
2021/01/13 10:06:27;;;;;;;70.78;9.10;;;2.80;99.90;;;;;;5011699;28;20210;-71
2021/01/13 10:08:55;;;;;;;65.80;9.38;;;2.80;97.10;;;;;;5011107;28;20206;-70
2021/01/13 10:11:25;;;;;;;66.57;8.85;;;2.80;95.00;;;;;;5011364;28;20277;-71
2021/01/13 10:13:58;;;;;;;61.13;8.00;;;2.80;99.90;;;;;;5011197;28;20207;-71
2021/01/13 10:16:26;;;;;;;67.60;9.05;;;2.90;99.90;;;;;;5011724;28;20280;-70
2021/01/13 10:18:55;;;;;;;63.58;7.82;;;3.00;99.90;;;;;;5011109;28;20294;-71
2021/01/13 10:21:22;;;;;;;66.63;8.32;;;3.10;99.90;;;;;;5011363;28;20213;-71
2021/01/13 10:23:50;;;;;;;67.03;9.00;;;3.10;92.00;;;;;;5011135;28;20231;-71
2021/01/13 10:26:18;;;;;;;65.43;8.45;;;3.20;78.80;;;;;;5011121;28;20265;-73
2021/01/13 10:28:45;;;;;;;64.28;7.18;;;3.20;38.90;;;;;;5011114;28;20211;-70
2021/01/13 10:31:23;;;;;;;62.22;7.70;;;3.20;55.10;;;;;;5011229;28;20227;-70
2021/01/13 10:33:52;;;;;;;59.65;6.35;;;3.20;83.20;;;;;;5011402;28;20231;-70
2021/01/13 10:36:40;;;;;;;62.50;7.50;;;3.20;87.20;;;;;;5011202;28;20207;-70
2021/01/13 10:39:13;;;;;;;66.05;7.20;;;3.40;82.20;;;;;;5010722;28;20674;-70
2021/01/13 10:41:42;;;;;;;70.53;6.85;;;3.40;68.10;;;;;;5011172;28;20206;-70
2021/01/13 10:44:12;;;;;;;61.30;6.50;;;3.50;68.90;;;;;;5011255;28;20207;-70
2021/01/13 10:46:57;;;;;;;63.10;6.03;;;3.60;38.50;;;;;;5011066;28;20219;-70
2021/01/13 10:49:27;;;;;;;63.13;6.75;;;3.90;80.10;;;;;;5013619;28;20249;-70
2021/01/13 10:51:55;;;;;;;62.83;7.97;;;4.40;85.50;;;;;;5014833;28;20227;-70
2021/01/13 10:54:23;;;;;;;65.13;7.05;;;4.40;64.50;;;;;;5014875;28;20207;-70
2021/01/13 10:56:59;;;;;;;64.95;6.85;;;4.40;1.00;;;;;;5014613;28;20211;-70
2021/01/13 10:59:26;;;;;;;68.82;7.05;;;4.40;1.00;;;;;;5014223;28;20214;-70
2021/01/13 11:01:53;;;;;;;64.75;7.25;;;4.30;1.00;;;;;;5014266;28;20705;-70
2021/01/13 11:04:34;;;;;;;60.35;6.90;;;4.40;1.00;;;;;;5014487;28;20254;-70
2021/01/13 11:07:04;;;;;;;62.53;6.47;;;4.40;1.00;;;;;;5014284;28;20250;-69
2021/01/13 11:09:31;;;;;;;61.20;5.80;;;4.30;1.00;;;;;;5014070;28;20257;-69
2021/01/13 11:11:59;;;;;;;62.58;6.38;;;4.30;1.00;;;;;;5014189;28;20258;-69
2021/01/13 11:14:30;;;;;;;67.25;7.32;;;4.30;1.00;;;;;;5014654;28;20213;-69
2021/01/13 11:17:00;;;;;;;62.50;6.43;;;4.40;1.00;;;;;;5014329;28;20339;-69
2021/01/13 11:19:27;;;;;;;62.85;4.97;;;4.50;1.00;;;;;;5014006;28;20246;-69
2021/01/13 11:21:55;;;;;;;62.63;5.00;;;4.70;1.00;;;;;;5014285;28;20277;-70
2021/01/13 11:24:33;;;;;;;63.20;4.80;;;4.70;1.00;;;;;;5014061;28;20211;-69
2021/01/13 11:27:01;;;;;;;58.53;4.25;;;4.70;1.00;;;;;;5014013;28;20669;-69
2021/01/13 11:29:30;;;;;;;62.47;4.95;;;4.50;1.00;;;;;;5013675;28;20558;-69
2021/01/13 11:31:58;;;;;;;61.95;5.07;;;4.40;1.00;;;;;;5013976;28;20609;-69
2021/01/13 11:34:25;;;;;;;63.90;6.20;;;4.40;1.00;;;;;;5014166;28;20210;-71
2021/01/13 11:37:26;;;;;;;67.38;4.72;;;4.30;1.00;;;;;;5014037;28;20349;-71
2021/01/13 11:40:17;;;;;;;59.40;3.95;;;4.50;1.00;;;;;;5014151;28;20201;-70
2021/01/13 11:43:36;;;;;;;58.17;4.10;;;4.90;1.00;;;;;;5013765;28;20227;-70
2021/01/13 11:46:11;;;;;;;59.75;4.15;;;5.10;1.00;;;;;;5014009;28;20373;-70
2021/01/13 11:49:10;;;;;;;59.38;4.20;;;5.00;1.00;;;;;;5013891;28;20245;-70
2021/01/13 11:51:41;;;;;;;59.65;4.45;;;4.90;1.00;;;;;;5013093;28;20223;-70
2021/01/13 11:54:09;;;;;;;60.22;4.05;;;4.60;1.00;;;;;;5013856;28;20221;-70
2021/01/13 11:56:35;;;;;;;57.92;4.00;;;4.50;1.00;;;;;;5013751;28;20302;-70
2021/01/13 11:59:02;;;;;;;58.65;3.58;;;4.50;1.00;;;;;;5013180;28;20207;-70
2021/01/13 12:01:29;;;;;;;59.47;3.58;;;4.50;1.00;;;;;;5012659;28;20203;-69
2021/01/13 12:04:00;;;;;;;61.35;3.45;;;4.60;1.00;;;;;;5013370;28;20203;-69
2021/01/13 12:06:26;;;;;;;57.65;3.65;;;4.70;1.00;;;;;;5013118;28;20211;-70
2021/01/13 12:08:53;;;;;;;57.67;3.50;;;4.80;1.00;;;;;;5013178;28;20207;-70
2021/01/13 12:11:21;;;;;;;57.30;3.30;;;5.00;1.00;;;;;;5013013;28;20313;-70
2021/01/13 12:13:48;;;;;;;58.92;3.20;;;5.10;1.00;;;;;;5013266;28;20285;-70
2021/01/13 12:16:16;;;;;;;58.08;3.47;;;5.30;1.00;;;;;;5013182;28;20703;-70
2021/01/13 12:18:47;;;;;;;57.65;3.00;;;5.30;1.00;;;;;;5012554;28;20620;-70
2021/01/13 12:21:28;;;;;;;57.15;2.60;;;5.10;1.00;;;;;;5013223;28;20214;-71
2021/01/13 12:23:56;;;;;;;57.95;3.00;;;5.60;1.00;;;;;;5013054;28;20211;-70
2021/01/13 12:26:28;;;;;;;62.85;4.15;;;6.00;1.00;;;;;;5013039;28;20234;-70
2021/01/13 12:28:56;;;;;;;57.20;3.05;;;6.60;1.00;;;;;;5012527;28;20682;-70
2021/01/13 12:31:26;;;;;;;58.40;3.13;;;6.60;1.00;;;;;;5012697;28;20318;-70
2021/01/13 12:33:54;;;;;;;56.83;2.97;;;6.70;1.00;;;;;;5012747;28;20220;-70
2021/01/13 12:36:22;;;;;;;58.15;2.88;;;6.50;1.00;;;;;;5012776;28;20211;-69
2021/01/13 12:38:49;;;;;;;57.17;3.00;;;6.10;1.00;;;;;;5012409;28;20258;-69
2021/01/13 12:41:25;;;;;;;58.55;2.80;;;5.60;1.00;;;;;;5012643;28;20215;-69
2021/01/13 12:43:52;;;;;;;57.15;3.10;;;5.40;1.00;;;;;;5012426;28;20206;-69
2021/01/13 12:46:26;;;;;;;58.95;3.33;;;5.30;1.00;;;;;;5012812;28;20733;-70
2021/01/13 12:48:53;;;;;;;59.33;3.58;;;5.20;1.00;;;;;;5012292;28;20215;-70
2021/01/13 12:51:19;;;;;;;56.97;3.05;;;5.10;1.00;;;;;;5012282;28;20227;-70
2021/01/13 12:53:46;;;;;;;60.00;2.90;;;5.00;1.00;;;;;;5012610;28;20297;-70
2021/01/13 12:56:26;;;;;;;58.95;3.58;;;5.00;1.00;;;;;;5012101;28;20218;-70
2021/01/13 12:58:53;;;;;;;57.53;2.92;;;4.80;1.00;;;;;;5012066;28;20211;-70
2021/01/13 13:01:20;;;;;;;58.00;3.25;;;4.80;1.00;;;;;;5012078;28;20207;-70
2021/01/13 13:03:47;;;;;;;59.38;3.42;;;5.30;1.00;;;;;;5012327;28;20244;-70
2021/01/13 13:06:23;;;;;;;62.90;3.30;;;5.60;1.00;;;;;;5012460;28;20211;-69
2021/01/13 13:08:49;;;;;;;56.88;3.17;;;5.90;1.00;;;;;;5012411;28;20261;-69
2021/01/13 13:11:16;;;;;;;56.92;2.75;;;5.70;1.00;;;;;;5011776;28;20227;-69
2021/01/13 13:13:43;;;;;;;57.53;2.90;;;5.50;1.00;;;;;;5012420;28;20597;-69
2021/01/13 13:16:10;;;;;;;56.70;2.80;;;5.40;1.00;;;;;;5012120;28;20280;-70